Time;durP1;ratioP1;P1;durP2;ratioP2;P2;SDS_P1;SDS_P2;PMS_P1;PMS_P2;Temp;Humidity;BMP_temperature;BMP_pressure;BME280_temperature;BME280_humidity;BME280_pressure;Samples;Min_cycle;Max_cycle;Signal;HPM_P1;HPM_P2
2023/04/14 00:04:26;;;;;;;11.70;6.47;;;4.60;99.90;;;;;;2611545;54;20179;-74
2023/04/14 00:10:13;;;;;;;8.07;6.53;;;4.50;99.90;;;;;;2611558;54;20150;-75
2023/04/14 00:16:01;;;;;;;7.10;6.30;;;4.50;99.90;;;;;;2611812;54;20158;-75
2023/04/14 00:21:48;;;;;;;7.30;6.30;;;4.60;99.90;;;;;;2611955;54;20154;-75
2023/04/14 00:24:52;;;;;;;8.47;5.67;;;4.40;99.90;;;;;;2608736;54;20399;-75
2023/04/14 00:27:18;;;;;;;10.40;6.23;;;4.30;99.90;;;;;;2612611;54;20143;-76
2023/04/14 00:33:06;;;;;;;7.83;5.60;;;4.30;99.90;;;;;;2611639;54;20150;-76
2023/04/14 00:38:53;;;;;;;6.70;6.00;;;4.10;99.90;;;;;;2613028;54;20135;-76
2023/04/14 00:44:41;;;;;;;9.93;6.03;;;4.20;99.90;;;;;;2609213;54;20150;-75
2023/04/14 00:50:29;;;;;;;6.67;5.23;;;4.10;99.90;;;;;;2607833;54;20129;-75
2023/04/14 00:56:17;;;;;;;11.53;5.77;;;4.30;99.90;;;;;;2611772;54;20354;-76
2023/04/14 01:02:04;;;;;;;8.63;6.10;;;4.50;99.90;;;;;;2611206;54;20391;-76
2023/04/14 01:07:53;;;;;;;7.20;5.00;;;4.30;99.90;;;;;;2606732;54;20151;-74
2023/04/14 01:20:38;;;;;;;17.60;6.23;;;4.50;99.90;;;;;;2612389;54;20455;-74
2023/04/14 01:36:43;;;;;;;19.87;6.10;;;4.50;99.90;;;;;;2613382;39;21264;-74
2023/04/14 01:42:34;;;;;;;10.50;6.57;;;4.40;99.90;;;;;;2613057;54;20375;-73
2023/04/14 01:48:23;;;;;;;7.23;5.70;;;4.30;99.90;;;;;;2613207;54;20412;-74
2023/04/14 01:54:13;;;;;;;11.83;6.37;;;4.20;99.90;;;;;;2614035;54;20365;-74
2023/04/14 02:00:03;;;;;;;10.77;6.00;;;4.40;99.90;;;;;;2612629;39;21010;-74
2023/04/14 02:05:54;;;;;;;10.37;7.03;;;4.70;99.90;;;;;;2612182;54;20376;-74
2023/04/14 02:11:43;;;;;;;14.60;6.10;;;4.80;99.90;;;;;;2615033;54;20366;-74
2023/04/14 02:17:32;;;;;;;12.77;5.80;;;4.80;99.90;;;;;;2613725;54;20527;-74
2023/04/14 02:23:20;;;;;;;7.03;5.73;;;5.00;99.90;;;;;;2612243;54;20483;-74
2023/04/14 02:29:12;;;;;;;7.97;6.00;;;4.90;99.90;;;;;;2612692;54;20167;-75
2023/04/14 02:35:03;;;;;;;8.00;7.20;;;5.00;99.90;;;;;;2612968;54;20387;-74
2023/04/14 02:40:52;;;;;;;8.00;6.70;;;5.10;99.90;;;;;;2612648;39;20461;-74
2023/04/14 02:46:44;;;;;;;7.07;6.37;;;5.00;99.90;;;;;;2606838;54;20426;-74
2023/04/14 02:52:33;;;;;;;8.83;6.93;;;5.00;99.90;;;;;;2613777;54;20465;-75
2023/04/14 02:58:21;;;;;;;9.10;6.60;;;4.90;99.90;;;;;;2612074;39;20737;-67
2023/04/14 03:04:09;;;;;;;9.60;6.80;;;4.80;99.90;;;;;;2609276;54;20736;-69
2023/04/14 03:09:57;;;;;;;9.47;6.63;;;4.80;99.90;;;;;;2613364;54;20374;-67
2023/04/14 03:15:46;;;;;;;13.53;6.73;;;5.00;99.90;;;;;;2612069;54;20363;-68
2023/04/14 03:21:35;;;;;;;7.33;6.40;;;4.80;99.90;;;;;;2613602;54;20391;-69
2023/04/14 03:24:56;;;;;;;9.07;7.20;;;4.80;99.90;;;;;;2613777;54;20391;-68
2023/04/14 03:27:26;;;;;;;10.60;7.33;;;4.60;99.90;;;;;;2613278;54;20412;-69
2023/04/14 03:33:19;;;;;;;14.73;7.80;;;4.40;99.90;;;;;;2613502;39;20708;-69
2023/04/14 03:39:11;;;;;;;10.47;7.37;;;4.10;99.90;;;;;;2613660;54;20367;-68
2023/04/14 03:45:00;;;;;;;7.80;6.00;;;3.70;99.90;;;;;;2613435;54;21146;-75
2023/04/14 03:50:51;;;;;;;10.40;6.50;;;4.00;99.90;;;;;;2613498;54;20834;-75
2023/04/14 03:56:44;;;;;;;12.03;6.80;;;4.00;99.90;;;;;;2609958;54;20378;-76
2023/04/14 04:02:31;;;;;;;11.70;7.07;;;3.80;99.90;;;;;;2611074;54;20970;-76
2023/04/14 04:08:21;;;;;;;11.17;6.80;;;3.70;99.90;;;;;;2610616;54;20410;-76
2023/04/14 04:14:11;;;;;;;7.70;6.83;;;3.50;99.90;;;;;;2613551;54;20920;-75
2023/04/14 04:20:00;;;;;;;10.03;6.53;;;3.50;99.90;;;;;;2613097;54;20391;-76
2023/04/14 04:29:26;;;;;;;10.93;7.73;;;3.40;99.90;;;;;;2608423;54;20410;-75
2023/04/14 04:35:14;;;;;;;8.53;7.20;;;3.30;99.90;;;;;;2607450;54;20438;-76
2023/04/14 04:41:01;;;;;;;10.20;7.77;;;3.20;99.90;;;;;;2610578;54;20134;-76
2023/04/14 04:46:54;;;;;;;12.10;7.10;;;3.20;99.90;;;;;;2608265;54;20155;-74
2023/04/14 04:52:42;;;;;;;9.83;6.90;;;3.30;99.90;;;;;;2608895;47;20820;-73
2023/04/14 04:58:29;;;;;;;16.43;8.83;;;3.30;99.90;;;;;;2609323;54;20130;-75
2023/04/14 05:04:17;;;;;;;12.03;7.90;;;3.20;99.90;;;;;;2609636;54;20154;-75
2023/04/14 05:10:05;;;;;;;23.50;9.20;;;3.00;99.90;;;;;;2612425;54;20594;-75
2023/04/14 05:16:07;;;;;;;7.63;6.87;;;3.10;99.90;;;;;;2612628;46;20423;-74
2023/04/14 05:21:54;;;;;;;11.80;7.00;;;3.60;99.90;;;;;;2612878;54;20400;-75
2023/04/14 05:24:53;;;;;;;10.23;7.80;;;3.80;99.90;;;;;;2612068;54;20402;-73
2023/04/14 05:27:20;;;;;;;8.40;7.10;;;3.90;99.90;;;;;;2612192;39;20526;-74
2023/04/14 05:33:08;;;;;;;11.83;7.63;;;4.40;99.90;;;;;;2609619;54;20388;-74
2023/04/14 05:38:56;;;;;;;12.50;7.83;;;5.10;99.90;;;;;;2608010;54;20134;-74
2023/04/14 05:44:44;;;;;;;13.53;8.40;;;5.90;99.90;;;;;;2609036;54;20137;-73
2023/04/14 05:50:36;;;;;;;9.23;8.20;;;6.80;99.90;;;;;;2610225;54;20383;-74
2023/04/14 05:56:24;;;;;;;10.50;9.37;;;7.40;99.90;;;;;;2610023;54;20387;-73
2023/04/14 06:02:11;;;;;;;11.83;9.60;;;7.70;99.90;;;;;;2608368;39;20669;-73
2023/04/14 06:07:59;;;;;;;12.67;11.40;;;8.00;99.90;;;;;;2611035;54;20159;-73
2023/04/14 06:13:47;;;;;;;13.93;10.40;;;8.50;99.90;;;;;;2612979;54;20126;-73
2023/04/14 06:19:34;;;;;;;12.00;10.73;;;8.80;98.10;;;;;;2612853;54;20135;-72
2023/04/14 06:29:25;;;;;;;12.70;11.80;;;9.50;85.80;;;;;;2612051;54;20976;-72
2023/04/14 06:35:13;;;;;;;13.00;12.10;;;10.20;60.80;;;;;;2611555;54;20391;-73
2023/04/14 06:41:01;;;;;;;12.70;12.00;;;10.30;64.30;;;;;;2611823;54;20146;-73
2023/04/14 06:46:49;;;;;;;13.57;12.47;;;10.60;62.30;;;;;;2611875;54;20138;-72
2023/04/14 06:52:37;;;;;;;14.00;12.80;;;11.20;53.50;;;;;;2613279;54;20467;-73
2023/04/14 06:58:28;;;;;;;13.17;12.13;;;10.80;54.30;;;;;;2612129;54;20138;-73
2023/04/14 07:04:18;;;;;;;13.53;12.43;;;10.70;44.90;;;;;;2612457;54;20515;-72
2023/04/14 07:10:06;;;;;;;13.50;12.30;;;11.60;45.30;;;;;;2611443;54;20483;-73
2023/04/14 07:15:54;;;;;;;14.93;13.20;;;11.50;31.90;;;;;;2613284;54;20427;-72
2023/04/14 07:21:46;;;;;;;15.13;13.77;;;12.10;30.70;;;;;;2611227;54;20450;-73
2023/04/14 07:24:50;;;;;;;13.97;12.70;;;11.80;32.90;;;;;;2610083;47;20498;-72
2023/04/14 07:27:16;;;;;;;14.80;13.43;;;12.10;28.70;;;;;;2609072;54;20422;-73
2023/04/14 07:33:03;;;;;;;13.97;12.97;;;12.50;27.90;;;;;;2612547;54;20138;-73
2023/04/14 07:36:08;;;;;;;14.93;13.63;;;12.70;25.30;;;;;;2611712;54;20439;-72
2023/04/14 07:38:34;;;;;;;14.70;13.37;;;12.00;22.20;;;;;;2609056;54;20159;-74
2023/04/14 07:44:21;;;;;;;14.23;13.20;;;13.00;15.30;;;;;;2609501;54;20145;-73
2023/04/14 07:50:09;;;;;;;14.47;13.17;;;12.80;13.60;;;;;;2612496;54;20147;-73
2023/04/14 07:55:58;;;;;;;14.20;13.20;;;12.80;16.90;;;;;;2612587;54;20391;-73
2023/04/14 08:01:47;;;;;;;16.80;14.97;;;13.40;13.70;;;;;;2611230;54;20415;-72
2023/04/14 08:07:35;;;;;;;15.40;14.30;;;12.90;9.30;;;;;;2612835;31;20880;-74
2023/04/14 08:13:23;;;;;;;14.90;13.70;;;13.60;9.30;;;;;;2612238;54;21062;-73
2023/04/14 08:19:11;;;;;;;14.73;13.80;;;12.80;8.50;;;;;;2610679;54;20154;-73
2023/04/14 08:31:42;;;;;;;14.47;13.47;;;14.20;1.00;;;;;;2611506;54;20372;-73
2023/04/14 08:37:30;;;;;;;16.33;15.00;;;14.50;1.00;;;;;;2612362;54;20134;-74
2023/04/14 08:43:18;;;;;;;15.47;14.40;;;15.10;1.00;;;;;;2610031;54;20126;-73
2023/04/14 08:49:08;;;;;;;14.13;13.30;;;14.60;1.00;;;;;;2612493;54;20645;-73
2023/04/14 08:54:56;;;;;;;16.93;15.23;;;15.40;1.00;;;;;;2612247;54;20424;-73
2023/04/14 09:00:45;;;;;;;15.33;13.87;;;14.10;1.00;;;;;;2613484;54;20969;-74
2023/04/14 09:06:33;;;;;;;13.37;12.63;;;15.50;1.00;;;;;;2609859;54;20384;-74
2023/04/14 09:12:24;;;;;;;14.07;13.00;;;16.00;1.00;;;;;;2609997;54;20471;-73
2023/04/14 09:18:12;;;;;;;15.73;14.50;;;16.40;1.00;;;;;;2612058;54;20989;-68
2023/04/14 09:24:00;;;;;;;14.03;13.00;;;14.90;1.00;;;;;;2611484;54;20149;-67
2023/04/14 09:29:50;;;;;;;13.93;12.93;;;14.30;1.00;;;;;;2613273;39;21027;-67
2023/04/14 09:35:49;;;;;;;14.13;13.00;;;14.40;1.00;;;;;;2612900;39;20849;-68
2023/04/14 09:48:11;;;;;;;15.23;14.17;;;15.30;1.00;;;;;;2611900;54;20452;-69
2023/04/14 09:54:07;;;;;;;16.40;15.37;;;15.20;1.00;;;;;;2609953;54;20127;-67
2023/04/14 09:59:55;;;;;;;13.60;12.60;;;15.50;1.00;;;;;;2611198;54;20154;-68
2023/04/14 10:05:46;;;;;;;14.03;13.23;;;14.70;1.00;;;;;;2610416;54;20395;-68
2023/04/14 10:11:34;;;;;;;16.73;15.03;;;16.20;1.00;;;;;;2610412;54;20367;-69
2023/04/14 10:14:59;;;;;;;14.23;13.40;;;15.20;1.00;;;;;;2610458;54;20438;-68
2023/04/14 10:20:47;;;;;;;14.97;14.10;;;15.00;1.00;;;;;;2610468;54;20416;-68
2023/04/14 10:29:56;;;;;;;14.17;13.17;;;16.50;1.00;;;;;;2611343;54;21496;-68
2023/04/14 10:35:46;;;;;;;15.73;14.60;;;16.40;1.00;;;;;;2610996;54;20451;-67
2023/04/14 10:41:46;;;;;;;16.27;15.20;;;17.00;1.00;;;;;;2610774;54;20374;-68
2023/04/14 10:47:38;;;;;;;16.23;15.30;;;17.00;1.00;;;;;;2608975;54;20386;-69
2023/04/14 10:53:26;;;;;;;16.30;15.03;;;17.90;1.00;;;;;;2608252;54;20355;-68
2023/04/14 10:59:16;;;;;;;14.80;13.80;;;16.90;1.00;;;;;;2613381;54;20439;-68
2023/04/14 11:05:05;;;;;;;16.23;15.03;;;17.70;1.00;;;;;;2609411;54;21336;-68
2023/04/14 11:11:04;;;;;;;14.70;13.80;;;16.40;1.00;;;;;;2612023;54;20395;-68
2023/04/14 11:23:26;;;;;;;14.43;13.40;;;17.00;1.00;;;;;;2610868;54;20399;-67
2023/04/14 11:32:49;;;;;;;13.70;12.80;;;17.60;1.00;;;;;;2611822;54;20433;-67
2023/04/14 11:38:39;;;;;;;14.60;13.40;;;18.30;1.00;;;;;;2609879;46;20395;-67
2023/04/14 11:44:27;;;;;;;13.03;12.43;;;18.70;1.00;;;;;;2611293;54;20430;-68
2023/04/14 11:50:16;;;;;;;14.23;13.20;;;17.90;1.00;;;;;;2608872;54;20166;-68
2023/04/14 11:56:07;;;;;;;13.37;12.57;;;18.00;1.00;;;;;;2614139;54;20520;-68
2023/04/14 12:01:56;;;;;;;13.47;12.70;;;19.70;1.00;;;;;;2610896;54;20382;-68
2023/04/14 12:07:47;;;;;;;14.30;13.47;;;18.10;1.00;;;;;;2610893;54;20422;-67
2023/04/14 12:13:40;;;;;;;13.23;12.03;;;17.50;1.00;;;;;;2611308;54;20386;-68
2023/04/14 12:19:27;;;;;;;14.40;13.60;;;18.40;1.00;;;;;;2611537;54;20973;-68
2023/04/14 12:25:15;;;;;;;14.27;13.07;;;18.10;1.00;;;;;;2611715;54;20119;-68
2023/04/14 12:28:08;;;;;;;15.50;14.70;;;18.20;1.00;;;;;;2612049;54;20913;-68
2023/04/14 12:30:35;;;;;;;14.00;13.30;;;17.50;1.00;;;;;;2609209;46;20174;-68
2023/04/14 12:36:23;;;;;;;14.00;13.30;;;18.30;1.00;;;;;;2611673;54;20371;-67
2023/04/14 12:42:11;;;;;;;13.87;13.13;;;18.50;1.00;;;;;;2610145;54;20318;-68
2023/04/14 12:44:56;;;;;;;14.70;13.60;;;18.50;1.00;;;;;;2608560;54;22155;-66
2023/04/14 12:47:29;;;;;;;14.70;13.97;;;18.50;1.00;;;;;;2610153;39;20474;-66
2023/04/14 12:53:25;;;;;;;14.10;13.37;;;19.20;1.00;;;;;;2614151;54;20495;-68
2023/04/14 12:59:13;;;;;;;15.30;14.30;;;19.00;1.00;;;;;;2612991;54;20395;-67
2023/04/14 13:05:01;;;;;;;13.63;12.80;;;18.60;1.00;;;;;;2612091;54;20456;-67
2023/04/14 13:10:50;;;;;;;13.87;13.13;;;18.40;1.00;;;;;;2610485;54;20162;-68
2023/04/14 13:16:37;;;;;;;14.30;13.50;;;19.70;1.00;;;;;;2611226;54;20379;-67
2023/04/14 13:22:25;;;;;;;15.33;14.30;;;19.00;1.00;;;;;;2613715;54;20126;-67
2023/04/14 13:34:20;;;;;;;15.40;14.40;;;18.90;1.00;;;;;;2612094;54;20948;-67
2023/04/14 13:40:08;;;;;;;14.27;13.47;;;19.40;1.00;;;;;;2612520;39;20578;-68
2023/04/14 13:45:57;;;;;;;14.70;13.47;;;18.30;1.00;;;;;;2613017;54;20420;-68
2023/04/14 13:51:45;;;;;;;13.30;12.67;;;18.30;1.00;;;;;;2613136;54;20386;-68
2023/04/14 13:57:32;;;;;;;14.00;13.00;;;18.00;1.00;;;;;;2610886;54;21047;-67
2023/04/14 14:03:20;;;;;;;13.97;13.30;;;17.50;1.00;;;;;;2613884;39;20563;-68
2023/04/14 14:09:08;;;;;;;14.23;13.40;;;17.70;1.00;;;;;;2608532;54;20403;-68
2023/04/14 14:14:56;;;;;;;13.33;12.73;;;18.80;1.00;;;;;;2613713;54;20150;-68
2023/04/14 14:20:43;;;;;;;14.20;13.30;;;17.90;1.00;;;;;;2611968;54;20153;-67
2023/04/14 14:26:31;;;;;;;15.97;14.60;;;17.30;1.00;;;;;;2613270;54;20142;-67
2023/04/14 14:32:19;;;;;;;15.33;14.10;;;16.80;1.00;;;;;;2612057;54;20247;-68
2023/04/14 14:38:07;;;;;;;13.37;12.60;;;16.80;1.00;;;;;;2612339;54;20697;-67
2023/04/14 14:43:55;;;;;;;14.33;13.53;;;17.00;1.00;;;;;;2614330;54;20155;-67
2023/04/14 14:49:43;;;;;;;14.47;13.57;;;16.60;1.00;;;;;;2606349;54;20411;-68
2023/04/14 14:55:31;;;;;;;14.23;13.63;;;16.70;1.00;;;;;;2612766;54;20527;-68
2023/04/14 15:01:18;;;;;;;15.10;14.00;;;17.00;1.00;;;;;;2613173;54;20392;-67
2023/04/14 15:07:06;;;;;;;15.30;14.50;;;16.70;1.00;;;;;;2608705;54;20242;-68
2023/04/14 15:12:54;;;;;;;13.43;12.73;;;16.70;1.00;;;;;;2613167;54;20517;-67
2023/04/14 15:18:41;;;;;;;14.60;13.50;;;16.80;1.00;;;;;;2613428;54;20154;-68
2023/04/14 15:24:29;;;;;;;14.60;13.43;;;16.40;1.00;;;;;;2613410;54;20233;-68
2023/04/14 15:30:22;;;;;;;14.10;13.40;;;16.30;1.00;;;;;;2613679;54;20202;-68
2023/04/14 15:36:10;;;;;;;14.63;13.93;;;15.90;1.00;;;;;;2613885;54;20366;-67
2023/04/14 15:41:57;;;;;;;15.67;14.57;;;16.10;1.00;;;;;;2613792;54;20636;-67
2023/04/14 15:47:45;;;;;;;15.83;14.60;;;16.10;1.00;;;;;;2613560;54;20126;-67
2023/04/14 15:53:33;;;;;;;15.20;14.30;;;15.90;1.00;;;;;;2613750;39;20438;-67
2023/04/14 15:59:21;;;;;;;15.03;14.00;;;16.10;1.00;;;;;;2613403;54;20130;-66
2023/04/14 16:05:09;;;;;;;15.40;14.40;;;16.30;1.00;;;;;;2613368;54;20486;-69
2023/04/14 16:10:56;;;;;;;15.00;13.80;;;16.80;1.00;;;;;;2613251;54;20938;-68
2023/04/14 16:16:46;;;;;;;14.93;14.03;;;16.90;1.00;;;;;;2614707;31;20618;-68
2023/04/14 16:22:34;;;;;;;14.13;13.43;;;16.60;1.00;;;;;;2613505;54;20958;-68
2023/04/14 16:32:40;;;;;;;14.90;13.90;;;15.60;1.00;;;;;;2614054;54;21021;-69
2023/04/14 16:38:28;;;;;;;13.60;12.90;;;15.80;1.00;;;;;;2613594;54;20443;-68
2023/04/14 16:44:16;;;;;;;14.63;13.30;;;16.10;1.00;;;;;;2613299;54;20371;-68
2023/04/14 16:50:04;;;;;;;14.33;13.50;;;15.60;1.00;;;;;;2613517;46;20146;-68
2023/04/14 16:55:52;;;;;;;13.87;13.07;;;16.80;1.00;;;;;;2613508;54;20507;-74
2023/04/14 17:01:40;;;;;;;17.40;16.20;;;15.50;1.00;;;;;;2611806;54;20359;-74
2023/04/14 17:07:28;;;;;;;18.23;16.83;;;15.00;1.00;;;;;;2609009;54;20362;-75
2023/04/14 17:13:15;;;;;;;16.80;15.60;;;14.80;1.00;;;;;;2612201;54;20644;-75
2023/04/14 17:19:03;;;;;;;15.50;14.43;;;14.60;1.00;;;;;;2612673;54;20134;-75
2023/04/14 17:24:51;;;;;;;15.43;14.50;;;14.50;1.00;;;;;;2612919;54;20905;-73
2023/04/14 17:28:07;;;;;;;15.60;14.43;;;14.50;1.00;;;;;;2612677;54;20399;-75
2023/04/14 17:30:35;;;;;;;14.67;13.47;;;14.50;1.00;;;;;;2612722;54;20434;-75
2023/04/14 17:36:23;;;;;;;14.93;13.73;;;14.50;1.00;;;;;;2612942;54;20379;-75
2023/04/14 17:42:11;;;;;;;15.50;14.50;;;14.30;1.00;;;;;;2614027;54;20140;-74
2023/04/14 17:47:59;;;;;;;16.23;15.13;;;13.80;1.00;;;;;;2615204;54;20143;-75
2023/04/14 17:53:47;;;;;;;14.60;13.70;;;13.50;1.00;;;;;;2614466;54;20178;-74
2023/04/14 17:59:35;;;;;;;16.43;14.97;;;13.30;1.00;;;;;;2611261;54;21279;-75
2023/04/14 18:05:22;;;;;;;15.00;14.20;;;13.10;1.00;;;;;;2610903;54;20158;-74
2023/04/14 18:11:11;;;;;;;15.00;14.10;;;12.90;1.00;;;;;;2612078;54;20123;-76
2023/04/14 18:16:59;;;;;;;15.03;13.97;;;12.60;1.00;;;;;;2609268;54;20363;-76
2023/04/14 18:22:47;;;;;;;14.83;13.80;;;12.40;1.00;;;;;;2610610;54;20126;-77
2023/04/14 18:32:34;;;;;;;15.87;14.67;;;12.10;1.00;;;;;;2610942;54;20399;-76
2023/04/14 18:38:23;;;;;;;14.60;13.67;;;11.80;1.00;;;;;;2609960;54;20387;-77
2023/04/14 18:44:11;;;;;;;14.73;13.93;;;11.70;1.00;;;;;;2612311;54;21171;-76
2023/04/14 18:49:59;;;;;;;15.60;14.60;;;11.50;1.00;;;;;;2613332;54;20213;-76
2023/04/14 18:55:46;;;;;;;14.53;13.57;;;11.30;1.30;;;;;;2612451;54;20534;-74
2023/04/14 19:01:34;;;;;;;14.90;14.20;;;11.10;3.80;;;;;;2610847;54;20195;-75
2023/04/14 19:07:21;;;;;;;14.17;13.47;;;10.90;5.30;;;;;;2612298;54;20680;-76
2023/04/14 19:13:10;;;;;;;17.33;14.30;;;10.80;7.50;;;;;;2610925;54;20130;-76
2023/04/14 19:18:58;;;;;;;15.73;14.77;;;10.50;12.00;;;;;;2609716;54;20937;-76
2023/04/14 19:24:46;;;;;;;15.63;14.60;;;10.60;10.90;;;;;;2610116;54;20383;-76
2023/04/14 19:30:50;;;;;;;18.33;16.87;;;10.40;14.50;;;;;;2609409;51;20147;-76
2023/04/14 19:36:38;;;;;;;18.47;17.23;;;10.30;15.30;;;;;;2608785;54;20222;-76
2023/04/14 19:42:25;;;;;;;19.40;17.57;;;10.20;16.80;;;;;;2610815;39;20864;-75
2023/04/14 19:48:13;;;;;;;20.30;18.70;;;10.10;18.90;;;;;;2610783;39;20528;-76
2023/04/14 19:54:00;;;;;;;21.77;19.47;;;9.70;25.70;;;;;;2607328;54;20204;-76
2023/04/14 19:59:47;;;;;;;20.70;18.90;;;9.80;28.40;;;;;;2608597;54;20131;-75
2023/04/14 20:05:35;;;;;;;19.83;18.33;;;9.90;26.50;;;;;;2610852;39;21112;-76
2023/04/14 20:11:26;;;;;;;20.63;19.10;;;10.00;24.90;;;;;;2610380;54;20150;-76
2023/04/14 20:17:14;;;;;;;21.67;19.97;;;9.80;24.40;;;;;;2607823;54;21254;-75
2023/04/14 20:23:04;;;;;;;26.97;24.40;;;9.50;31.20;;;;;;2610928;54;20376;-75
2023/04/14 20:32:39;;;;;;;28.93;26.30;;;8.80;49.20;;;;;;2610575;54;20400;-77
2023/04/14 20:38:28;;;;;;;27.00;24.37;;;8.50;70.80;;;;;;2609280;54;20957;-77
2023/04/14 20:44:15;;;;;;;23.87;21.63;;;8.20;89.10;;;;;;2607654;54;20354;-77
2023/04/14 20:50:04;;;;;;;18.77;16.90;;;8.10;97.30;;;;;;2610728;54;20122;-77
2023/04/14 20:55:52;;;;;;;18.83;17.27;;;7.90;99.90;;;;;;2611354;54;20528;-78
2023/04/14 21:01:41;;;;;;;16.67;15.57;;;7.80;99.90;;;;;;2609904;54;20391;-77
2023/04/14 21:07:29;;;;;;;18.23;16.47;;;7.60;99.90;;;;;;2609355;54;20519;-76
2023/04/14 21:13:17;;;;;;;20.07;18.27;;;7.30;99.90;;;;;;2609785;54;20363;-77
2023/04/14 21:19:04;;;;;;;26.83;22.13;;;7.20;99.90;;;;;;2610238;54;20274;-77
2023/04/14 21:24:52;;;;;;;21.40;19.37;;;7.20;99.90;;;;;;2613535;54;20231;-76
2023/04/14 21:28:07;;;;;;;22.37;20.53;;;7.10;99.90;;;;;;2613904;54;20431;-77
2023/04/14 21:30:33;;;;;;;22.73;20.63;;;7.20;99.90;;;;;;2614723;54;20175;-77
2023/04/14 21:36:20;;;;;;;21.87;19.80;;;7.10;99.90;;;;;;2613409;54;20139;-77
2023/04/14 21:42:08;;;;;;;21.77;19.50;;;7.00;99.90;;;;;;2613731;54;20123;-77
2023/04/14 21:47:57;;;;;;;19.10;17.20;;;7.00;99.90;;;;;;2613938;54;20121;-76
2023/04/14 21:53:45;;;;;;;20.87;18.67;;;6.90;99.90;;;;;;2609704;54;20414;-76
2023/04/14 21:59:33;;;;;;;19.73;17.97;;;7.10;99.90;;;;;;2614626;54;20754;-76
2023/04/14 22:05:21;;;;;;;18.87;17.23;;;7.20;99.90;;;;;;2613902;54;20164;-77
2023/04/14 22:11:08;;;;;;;17.17;15.77;;;7.60;99.90;;;;;;2614741;54;20222;-76
2023/04/14 22:16:56;;;;;;;19.00;17.00;;;7.10;99.90;;;;;;2613669;54;20127;-76
2023/04/14 22:22:43;;;;;;;20.30;18.40;;;6.80;99.90;;;;;;2614249;54;20154;-76
2023/04/14 22:32:40;;;;;;;20.20;18.30;;;6.50;99.90;;;;;;2613562;54;20484;-75
2023/04/14 22:38:29;;;;;;;18.97;17.20;;;6.30;99.90;;;;;;2614461;54;20423;-77
2023/04/14 22:44:18;;;;;;;18.40;16.83;;;6.20;99.90;;;;;;2613160;54;20420;-77
2023/04/14 22:50:06;;;;;;;19.77;18.00;;;6.10;99.90;;;;;;2614166;54;20386;-76
2023/04/14 22:55:55;;;;;;;19.97;18.17;;;6.00;99.90;;;;;;2614625;54;20379;-76
2023/04/14 23:01:42;;;;;;;18.50;16.87;;;5.90;99.90;;;;;;2613966;54;20447;-76
2023/04/14 23:07:30;;;;;;;18.87;16.87;;;5.90;99.90;;;;;;2612387;54;20158;-77
2023/04/14 23:13:18;;;;;;;16.07;14.70;;;6.10;99.90;;;;;;2613117;54;20904;-77
2023/04/14 23:19:05;;;;;;;16.60;14.90;;;6.00;99.90;;;;;;2613226;54;20123;-77
2023/04/14 23:24:53;;;;;;;16.93;15.43;;;5.90;99.90;;;;;;2612498;54;20151;-77
2023/04/14 23:28:08;;;;;;;18.17;16.43;;;5.90;99.90;;;;;;2614124;54;20414;-77
2023/04/14 23:30:33;;;;;;;16.13;14.60;;;5.90;99.90;;;;;;2614133;54;20403;-77
2023/04/14 23:36:21;;;;;;;17.97;16.30;;;5.70;99.90;;;;;;2614338;54;20660;-76
2023/04/14 23:42:08;;;;;;;16.73;15.07;;;5.60;99.90;;;;;;2613958;54;20399;-78
2023/04/14 23:47:57;;;;;;;15.93;14.53;;;5.50;99.90;;;;;;2614184;54;20142;-77
2023/04/14 23:53:45;;;;;;;15.60;14.20;;;5.30;99.90;;;;;;2614074;54;20957;-76
2023/04/14 23:59:33;;;;;;;19.53;16.70;;;5.20;99.90;;;;;;2612238;54;21772;-75
